createdAt,value
2023-03-14T00:00:18.807Z,72.60
2023-03-14T00:02:45.444Z,72.60
2023-03-14T00:05:12.177Z,72.60
2023-03-14T00:07:40.192Z,72.60
2023-03-14T00:10:11.079Z,72.50
2023-03-14T00:12:37.775Z,72.50
2023-03-14T00:15:05.376Z,72.40
2023-03-14T00:17:32.341Z,72.40
2023-03-14T00:20:05.092Z,72.40
2023-03-14T00:22:32.707Z,72.30
2023-03-14T00:24:59.329Z,72.30
2023-03-14T00:27:25.974Z,72.30
2023-03-14T00:29:52.554Z,72.20
2023-03-14T00:32:19.294Z,72.10
2023-03-14T00:34:45.980Z,72.20
2023-03-14T00:37:12.624Z,72.20
2023-03-14T00:39:39.228Z,72.20
2023-03-14T00:42:06.156Z,72.20
2023-03-14T00:44:32.882Z,72.20
2023-03-14T00:47:00.243Z,72.10
2023-03-14T00:49:27.666Z,72.00
2023-03-14T00:51:54.314Z,71.90
2023-03-14T00:54:21.034Z,71.70
2023-03-14T00:56:48.044Z,71.60
2023-03-14T00:59:16.176Z,71.50
2023-03-14T01:01:43.007Z,71.40
2023-03-14T01:04:09.802Z,71.30
2023-03-14T01:06:36.489Z,71.30
2023-03-14T01:09:03.811Z,71.20
2023-03-14T01:11:33.255Z,71.10
2023-03-14T01:14:00.919Z,71.00
2023-03-14T01:16:29.548Z,71.00
2023-03-14T01:18:56.362Z,70.90
2023-03-14T01:21:26.006Z,70.80
2023-03-14T01:23:54.262Z,70.80
2023-03-14T01:26:23.938Z,70.70
2023-03-14T01:28:52.743Z,70.80
2023-03-14T01:31:19.703Z,70.70
2023-03-14T01:33:47.212Z,70.70
2023-03-14T01:36:14.344Z,70.70
2023-03-14T01:38:41.390Z,70.70
2023-03-14T01:41:13.030Z,70.60
2023-03-14T01:43:39.626Z,70.70
2023-03-14T01:46:06.256Z,70.60
2023-03-14T01:48:36.418Z,70.60
2023-03-14T01:51:04.801Z,70.60
2023-03-14T01:53:31.712Z,70.60
2023-03-14T01:55:58.425Z,70.60
2023-03-14T01:58:28.283Z,70.60
2023-03-14T02:00:58.100Z,70.60
2023-03-14T02:03:26.227Z,70.60
2023-03-14T02:05:57.626Z,70.60
2023-03-14T02:08:25.400Z,70.60
2023-03-14T02:10:52.475Z,70.60
2023-03-14T02:13:21.149Z,70.70
2023-03-14T02:15:48.747Z,70.70
2023-03-14T02:18:17.166Z,70.70
2023-03-14T02:21:04.028Z,70.70
2023-03-14T02:23:59.662Z,70.80
2023-03-14T02:26:37.756Z,70.80
2023-03-14T02:29:04.375Z,70.90
2023-03-14T02:31:31.222Z,70.80
2023-03-14T02:33:58.552Z,70.90
2023-03-14T02:36:25.945Z,70.80
2023-03-14T02:39:15.191Z,70.80
2023-03-14T02:41:43.425Z,70.80
2023-03-14T02:44:10.044Z,70.80
2023-03-14T02:46:36.754Z,70.70
2023-03-14T02:49:08.016Z,70.60
2023-03-14T02:51:36.191Z,70.50
2023-03-14T02:54:02.841Z,70.40
2023-03-14T02:56:29.505Z,70.30
2023-03-14T02:58:56.097Z,70.30
2023-03-14T03:01:22.778Z,70.20
2023-03-14T03:03:49.423Z,70.20
2023-03-14T03:06:16.377Z,70.10
2023-03-14T03:08:42.984Z,70.20
2023-03-14T03:11:09.599Z,70.20
2023-03-14T03:13:36.372Z,70.30
2023-03-14T03:16:03.732Z,70.30
2023-03-14T03:18:30.317Z,70.30
2023-03-14T03:21:01.503Z,70.30
2023-03-14T03:23:28.248Z,70.30
2023-03-14T03:25:54.848Z,70.20
2023-03-14T03:28:21.619Z,70.00
2023-03-14T03:30:48.366Z,70.00
2023-03-14T03:33:15.426Z,69.90
2023-03-14T03:35:48.242Z,69.70
2023-03-14T03:38:16.142Z,69.60
2023-03-14T03:40:43.548Z,69.50
2023-03-14T03:43:10.272Z,69.50
2023-03-14T03:45:36.886Z,69.40
2023-03-14T03:48:03.679Z,69.40
2023-03-14T03:50:30.260Z,69.40
2023-03-14T03:52:56.894Z,69.40
2023-03-14T03:55:23.542Z,69.40
2023-03-14T03:57:50.127Z,69.40
2023-03-14T04:00:17.007Z,69.40
2023-03-14T04:02:43.730Z,69.30
2023-03-14T04:05:10.513Z,69.40
2023-03-14T04:07:37.119Z,69.30
2023-03-14T04:10:03.883Z,69.30
2023-03-14T04:12:30.481Z,69.20
2023-03-14T04:14:57.150Z,69.00
2023-03-14T04:17:23.828Z,68.90
2023-03-14T04:19:52.392Z,68.80
2023-03-14T04:22:19.133Z,68.70
2023-03-14T04:24:45.784Z,68.60
2023-03-14T04:27:12.468Z,68.60
2023-03-14T04:29:39.084Z,68.60
2023-03-14T04:32:05.903Z,68.60
2023-03-14T04:34:32.560Z,68.50
2023-03-14T04:36:59.195Z,68.50
2023-03-14T04:39:25.810Z,68.40
2023-03-14T04:41:53.048Z,68.30
2023-03-14T04:44:19.657Z,68.20
2023-03-14T04:46:46.329Z,68.20
2023-03-14T04:49:12.985Z,68.20
2023-03-14T04:51:39.572Z,68.20
2023-03-14T04:54:06.188Z,68.20
2023-03-14T04:56:32.798Z,68.20
2023-03-14T04:58:59.418Z,68.20
2023-03-14T05:01:26.174Z,68.10
2023-03-14T05:03:52.803Z,68.00
2023-03-14T05:06:19.547Z,67.90
2023-03-14T05:08:46.935Z,67.90
2023-03-14T05:11:13.792Z,68.00
2023-03-14T05:13:40.697Z,67.90
2023-03-14T05:16:09.164Z,68.00
2023-03-14T05:18:35.928Z,68.00
2023-03-14T05:21:02.998Z,68.00
2023-03-14T05:23:29.633Z,68.10
2023-03-14T05:25:56.622Z,68.20
2023-03-14T05:28:23.472Z,68.30
2023-03-14T05:30:50.124Z,68.40
2023-03-14T05:33:16.710Z,68.40
2023-03-14T05:35:43.981Z,68.40
2023-03-14T05:38:10.613Z,68.40
2023-03-14T05:40:37.217Z,68.50
2023-03-14T05:43:03.831Z,68.50
2023-03-14T05:45:30.485Z,68.50
2023-03-14T05:47:57.142Z,68.50
2023-03-14T05:50:23.739Z,68.50
2023-03-14T05:52:50.356Z,68.40
2023-03-14T05:55:17.024Z,68.50
2023-03-14T05:57:43.712Z,68.40
2023-03-14T06:00:11.037Z,68.30
2023-03-14T06:02:37.660Z,68.20
2023-03-14T06:05:05.300Z,68.20
2023-03-14T06:07:31.920Z,68.20
2023-03-14T06:09:59.418Z,68.20
2023-03-14T06:12:26.221Z,68.10
2023-03-14T06:14:52.817Z,68.00
2023-03-14T06:17:19.443Z,68.00
2023-03-14T06:19:46.135Z,67.90
2023-03-14T06:22:12.816Z,67.80
2023-03-14T06:24:39.749Z,67.80
2023-03-14T06:27:06.349Z,67.80
2023-03-14T06:29:33.173Z,67.60
2023-03-14T06:31:59.804Z,67.60
2023-03-14T06:34:26.694Z,67.30
2023-03-14T06:36:53.389Z,67.10
2023-03-14T06:39:19.996Z,66.90
2023-03-14T06:41:46.658Z,66.80
2023-03-14T06:44:13.253Z,66.50
2023-03-14T06:46:39.851Z,66.30
2023-03-14T06:49:06.447Z,66.10
2023-03-14T06:51:34.909Z,66.00
2023-03-14T06:54:01.661Z,65.80
2023-03-14T06:56:28.253Z,65.80
2023-03-14T06:58:54.868Z,65.70
2023-03-14T07:01:28.340Z,65.70
2023-03-14T07:03:55.354Z,65.60
2023-03-14T07:06:22.667Z,65.50
2023-03-14T07:08:49.686Z,65.30
2023-03-14T07:11:16.310Z,65.00
2023-03-14T07:13:42.976Z,64.60
2023-03-14T07:16:10.100Z,64.10
2023-03-14T07:18:38.268Z,63.70
2023-03-14T07:21:10.078Z,63.30
2023-03-14T07:23:36.857Z,63.00
2023-03-14T07:26:03.535Z,63.00
2023-03-14T07:28:30.271Z,63.00
2023-03-14T07:30:57.492Z,63.00
2023-03-14T07:33:24.232Z,63.00
2023-03-14T07:35:51.499Z,63.00
2023-03-14T07:38:21.498Z,62.90
2023-03-14T07:40:49.259Z,62.80
2023-03-14T07:43:15.990Z,62.80
2023-03-14T07:45:45.983Z,62.50
2023-03-14T07:48:12.609Z,62.10
2023-03-14T07:50:39.195Z,62.00
2023-03-14T07:53:06.164Z,61.80
2023-03-14T07:55:32.841Z,61.40
2023-03-14T07:57:59.468Z,61.00
2023-03-14T08:00:26.338Z,60.50
2023-03-14T08:02:53.038Z,60.30
2023-03-14T08:05:19.937Z,60.00
2023-03-14T08:07:46.542Z,59.90
2023-03-14T08:10:16.684Z,59.60
2023-03-14T08:12:43.320Z,59.60
2023-03-14T08:15:10.379Z,59.50
2023-03-14T08:17:37.154Z,59.20
2023-03-14T08:20:07.600Z,59.00
2023-03-14T08:22:34.278Z,58.50
2023-03-14T08:25:00.848Z,58.40
2023-03-14T08:27:27.497Z,57.90
2023-03-14T08:29:54.244Z,57.70
2023-03-14T08:32:21.287Z,57.60
2023-03-14T08:34:48.122Z,57.50
2023-03-14T08:37:25.633Z,57.40
2023-03-14T08:39:54.059Z,57.50
2023-03-14T08:42:20.908Z,57.70
2023-03-14T08:44:47.544Z,57.70
2023-03-14T08:47:14.295Z,57.60
2023-03-14T08:49:41.192Z,57.70
2023-03-14T08:52:07.866Z,57.80
2023-03-14T08:54:34.494Z,57.80
2023-03-14T08:57:01.232Z,57.90
2023-03-14T08:59:27.865Z,57.70
2023-03-14T09:01:55.476Z,57.70
2023-03-14T09:04:22.766Z,57.60
2023-03-14T09:06:49.547Z,57.50
2023-03-14T09:09:16.151Z,57.40
2023-03-14T09:11:42.802Z,57.10
2023-03-14T09:14:09.439Z,57.40
2023-03-14T09:16:36.128Z,57.20
2023-03-14T09:19:03.763Z,57.00
2023-03-14T09:21:30.380Z,56.60
2023-03-14T09:23:57.074Z,56.60
2023-03-14T09:26:23.680Z,56.50
2023-03-14T09:28:50.320Z,56.20
2023-03-14T09:31:17.321Z,56.30
2023-03-14T09:33:43.912Z,56.50
2023-03-14T09:36:10.628Z,56.80
2023-03-14T09:38:37.482Z,57.40
2023-03-14T09:41:16.342Z,57.80
2023-03-14T09:43:46.060Z,58.30
2023-03-14T09:46:14.905Z,58.40
2023-03-14T09:48:42.352Z,58.40
2023-03-14T09:51:15.405Z,58.70
2023-03-14T09:53:47.832Z,59.20
2023-03-14T09:56:19.979Z,59.00
2023-03-14T09:58:52.730Z,59.20
2023-03-14T10:01:32.267Z,59.40
2023-03-14T10:04:05.441Z,59.40
2023-03-14T10:06:32.447Z,59.40
2023-03-14T10:08:59.198Z,59.30
2023-03-14T10:11:26.168Z,59.50
2023-03-14T10:14:06.655Z,59.60
2023-03-14T10:16:45.556Z,59.60
2023-03-14T10:19:15.321Z,59.60
2023-03-14T10:21:44.468Z,59.70
2023-03-14T10:24:26.156Z,59.50
2023-03-14T10:27:02.488Z,59.70
2023-03-14T10:29:31.055Z,59.80
2023-03-14T10:32:07.127Z,60.00
2023-03-14T10:34:36.418Z,60.20
2023-03-14T10:37:26.654Z,60.30
2023-03-14T10:39:56.135Z,60.30
2023-03-14T10:42:32.631Z,60.20
2023-03-14T10:45:03.138Z,59.60
2023-03-14T10:47:30.211Z,59.50
2023-03-14T10:49:57.898Z,59.40
2023-03-14T10:52:31.012Z,59.90
2023-03-14T10:55:09.960Z,60.20
2023-03-14T10:57:40.605Z,59.90
2023-03-14T11:00:14.612Z,59.40
2023-03-14T11:02:50.691Z,58.80
2023-03-14T11:05:28.464Z,58.40
2023-03-14T11:08:03.900Z,58.00
2023-03-14T11:10:35.021Z,57.20
2023-03-14T11:13:23.740Z,56.90
2023-03-14T11:16:05.298Z,56.70
2023-03-14T11:18:58.159Z,56.10
2023-03-14T11:21:38.679Z,55.70
2023-03-14T11:24:31.791Z,55.40
2023-03-14T11:27:07.115Z,55.10
2023-03-14T11:29:41.720Z,54.80
2023-03-14T11:32:44.810Z,54.40
2023-03-14T11:35:32.529Z,54.20
2023-03-14T11:38:11.595Z,54.00
2023-03-14T11:40:40.013Z,54.80
2023-03-14T11:43:09.481Z,56.00
2023-03-14T11:45:42.077Z,56.60
2023-03-14T11:48:29.826Z,57.30
2023-03-14T11:50:59.312Z,57.80
2023-03-14T11:53:49.556Z,58.80
2023-03-14T11:56:27.119Z,58.90
2023-03-14T11:58:59.215Z,59.20
2023-03-14T12:01:50.016Z,59.30
2023-03-14T12:04:24.201Z,59.60
2023-03-14T12:06:51.714Z,59.90
2023-03-14T12:09:20.946Z,60.30
2023-03-14T12:12:04.799Z,60.80
2023-03-14T12:14:45.281Z,61.00
2023-03-14T12:17:37.005Z,61.50
2023-03-14T12:20:16.104Z,61.60
2023-03-14T12:22:47.208Z,62.20
2023-03-14T12:25:13.850Z,62.30
2023-03-14T12:27:47.844Z,62.40
2023-03-14T12:30:21.671Z,62.50
2023-03-14T12:33:10.042Z,62.70
2023-03-14T12:35:36.890Z,62.60
2023-03-14T12:38:29.866Z,62.90
2023-03-14T12:41:26.004Z,63.10
2023-03-14T12:43:53.184Z,63.10
2023-03-14T12:46:20.048Z,63.30
2023-03-14T12:49:06.849Z,63.50
2023-03-14T12:51:42.449Z,63.80
2023-03-14T12:54:31.030Z,64.40
2023-03-14T12:57:26.968Z,65.00
2023-03-14T12:59:58.008Z,65.50
2023-03-14T13:02:30.643Z,65.70
2023-03-14T13:05:13.983Z,66.30
2023-03-14T13:07:44.199Z,66.50
2023-03-14T13:13:10.392Z,67.30
2023-03-14T13:15:44.783Z,67.60
2023-03-14T13:18:15.877Z,67.80
2023-03-14T13:20:52.372Z,67.70
2023-03-14T13:23:28.355Z,67.60
2023-03-14T13:25:55.573Z,67.70
2023-03-14T13:28:23.005Z,67.50
2023-03-14T13:31:01.607Z,67.50
2023-03-14T13:33:28.612Z,67.60
2023-03-14T13:35:59.690Z,67.50
2023-03-14T13:38:29.476Z,67.50
2023-03-14T13:41:00.468Z,67.70
2023-03-14T13:43:32.915Z,67.80
2023-03-14T13:46:15.099Z,68.00
2023-03-14T13:48:47.641Z,68.00
2023-03-14T13:51:17.210Z,68.00
2023-03-14T13:53:50.161Z,68.10
2023-03-14T13:56:21.311Z,68.40
2023-03-14T13:58:48.780Z,68.60
2023-03-14T14:01:18.147Z,68.90
2023-03-14T14:03:50.244Z,69.00
2023-03-14T14:06:44.978Z,69.00
2023-03-14T14:09:24.704Z,68.80
2023-03-14T14:12:15.032Z,69.20
2023-03-14T14:14:54.325Z,69.10
2023-03-14T14:17:37.317Z,69.00
2023-03-14T14:20:06.907Z,69.00
2023-03-14T14:22:34.225Z,68.80
2023-03-14T14:25:01.616Z,68.80
2023-03-14T14:27:40.211Z,69.00
2023-03-14T14:30:18.812Z,68.90
2023-03-14T14:32:48.737Z,68.80
2023-03-14T14:35:36.003Z,68.80
2023-03-14T14:38:13.825Z,68.70
2023-03-14T14:40:46.557Z,68.50
2023-03-14T14:43:28.228Z,68.50
2023-03-14T14:45:56.966Z,68.10
2023-03-14T14:48:26.198Z,67.80
2023-03-14T14:51:01.892Z,67.70
2023-03-14T14:53:42.916Z,67.70
2023-03-14T14:56:25.736Z,67.50
2023-03-14T14:59:00.418Z,67.30
2023-03-14T15:01:40.203Z,66.80
2023-03-14T15:04:14.550Z,66.30
2023-03-14T15:06:44.432Z,66.20
2023-03-14T15:09:14.474Z,65.80
2023-03-14T15:11:41.163Z,65.50
2023-03-14T15:14:07.933Z,65.20
2023-03-14T15:16:34.841Z,64.60
2023-03-14T15:19:18.001Z,64.30
2023-03-14T15:21:50.071Z,63.90
2023-03-14T15:24:16.915Z,63.30
2023-03-14T15:26:45.336Z,62.90
2023-03-14T15:29:13.447Z,62.50
2023-03-14T15:31:41.597Z,62.10
2023-03-14T15:34:09.037Z,61.80
2023-03-14T15:36:36.611Z,61.40
2023-03-14T15:39:05.700Z,61.30
2023-03-14T15:41:32.919Z,60.90
2023-03-14T15:43:59.549Z,60.80
2023-03-14T15:46:26.285Z,60.80
2023-03-14T15:48:53.355Z,60.10
2023-03-14T15:51:20.020Z,59.90
2023-03-14T15:53:46.744Z,59.70
2023-03-14T15:56:24.960Z,59.10
2023-03-14T15:58:52.019Z,58.70
2023-03-14T16:01:18.831Z,58.60
2023-03-14T16:03:46.165Z,58.60
2023-03-14T16:06:14.223Z,58.10
2023-03-14T16:08:41.428Z,57.90
2023-03-14T16:11:08.015Z,57.80
2023-03-14T16:13:34.599Z,57.30
2023-03-14T16:16:03.508Z,57.30
2023-03-14T16:18:32.360Z,57.40
2023-03-14T16:21:00.816Z,57.40
2023-03-14T16:23:28.685Z,57.20
2023-03-14T16:25:56.358Z,57.30
2023-03-14T16:28:23.422Z,57.20
2023-03-14T16:30:50.083Z,56.80
2023-03-14T16:33:17.197Z,56.70
2023-03-14T16:35:55.401Z,56.50
2023-03-14T16:38:23.216Z,55.90
2023-03-14T16:40:57.471Z,56.10
2023-03-14T16:43:24.222Z,55.50
2023-03-14T16:45:51.046Z,55.60
2023-03-14T16:48:17.768Z,55.20
2023-03-14T16:50:44.373Z,55.10
2023-03-14T16:53:11.914Z,55.00
2023-03-14T16:55:47.651Z,54.60
2023-03-14T16:58:14.329Z,54.40
2023-03-14T17:00:41.037Z,54.20
2023-03-14T17:03:07.657Z,54.00
2023-03-14T17:05:34.629Z,54.00
2023-03-14T17:08:01.209Z,54.20
2023-03-14T17:10:27.790Z,54.00
2023-03-14T17:12:54.389Z,53.80
2023-03-14T17:15:20.966Z,54.00
2023-03-14T17:17:47.642Z,53.70
2023-03-14T17:20:14.283Z,54.00
2023-03-14T17:22:40.872Z,53.90
2023-03-14T17:25:07.865Z,54.10
2023-03-14T17:27:36.084Z,54.00
2023-03-14T17:30:04.709Z,54.00
2023-03-14T17:32:31.393Z,54.30
2023-03-14T17:34:58.233Z,54.40
2023-03-14T17:37:24.831Z,54.10
2023-03-14T17:39:51.447Z,54.10
2023-03-14T17:42:18.033Z,53.90
2023-03-14T17:44:46.087Z,53.70
2023-03-14T17:47:12.885Z,53.90
2023-03-14T17:49:40.448Z,53.90
2023-03-14T17:52:08.591Z,53.80
2023-03-14T17:54:35.239Z,53.80
2023-03-14T17:57:02.107Z,53.80
2023-03-14T17:59:28.759Z,53.70
2023-03-14T18:01:55.459Z,53.80
2023-03-14T18:04:22.379Z,54.50
2023-03-14T18:06:49.024Z,54.50
2023-03-14T18:09:15.736Z,54.30
2023-03-14T18:11:42.414Z,54.10
2023-03-14T18:14:09.948Z,53.80
2023-03-14T18:16:36.768Z,53.50
2023-03-14T18:19:03.479Z,53.50
2023-03-14T18:21:30.960Z,53.80
2023-03-14T18:23:57.677Z,54.00
2023-03-14T18:26:27.579Z,54.10
2023-03-14T18:28:54.950Z,53.80
2023-03-14T18:31:24.984Z,53.80
2023-03-14T18:33:53.440Z,54.10
2023-03-14T18:36:20.352Z,54.40
2023-03-14T18:38:48.521Z,54.60
2023-03-14T18:41:19.955Z,54.90
2023-03-14T18:43:47.640Z,54.90
2023-03-14T18:46:15.579Z,54.60
2023-03-14T18:48:42.566Z,54.60
2023-03-14T18:51:18.147Z,54.80
2023-03-14T18:53:45.743Z,55.30
2023-03-14T18:56:14.179Z,55.40
2023-03-14T18:58:41.496Z,55.70
2023-03-14T19:01:08.261Z,56.30
2023-03-14T19:03:38.029Z,56.60
2023-03-14T19:06:06.819Z,56.10
2023-03-14T19:08:35.838Z,55.90
2023-03-14T19:11:04.746Z,56.20
2023-03-14T19:13:33.042Z,56.70
2023-03-14T19:16:00.832Z,57.40
2023-03-14T19:18:27.813Z,58.10
2023-03-14T19:20:59.802Z,58.80
2023-03-14T19:23:27.421Z,59.70
2023-03-14T19:25:54.981Z,60.00
2023-03-14T19:28:22.010Z,60.30
2023-03-14T19:30:49.299Z,60.70
2023-03-14T19:33:17.523Z,61.10
2023-03-14T19:35:44.889Z,61.40
2023-03-14T19:38:12.367Z,61.80
2023-03-14T19:40:40.951Z,62.00
2023-03-14T19:43:07.799Z,62.50
2023-03-14T19:45:36.837Z,62.60
2023-03-14T19:48:06.457Z,63.00
2023-03-14T19:50:35.106Z,63.10
2023-03-14T19:53:03.602Z,63.30
2023-03-14T19:55:34.655Z,63.70
2023-03-14T19:58:01.366Z,63.90
2023-03-14T20:00:28.034Z,64.10
2023-03-14T20:02:54.788Z,64.40
2023-03-14T20:05:23.079Z,64.60
2023-03-14T20:07:50.127Z,64.70
2023-03-14T20:10:19.266Z,64.80
2023-03-14T20:12:46.292Z,65.00
2023-03-14T20:15:18.284Z,64.90
2023-03-14T20:17:46.105Z,65.10
2023-03-14T20:20:13.299Z,65.30
2023-03-14T20:22:40.757Z,65.20
2023-03-14T20:25:12.979Z,65.20
2023-03-14T20:27:40.564Z,65.40
2023-03-14T20:30:12.532Z,65.30
2023-03-14T20:32:40.512Z,65.20
2023-03-14T20:35:09.459Z,65.30
2023-03-14T20:37:36.209Z,65.50
2023-03-14T20:40:07.083Z,65.70
2023-03-14T20:42:34.738Z,65.80
2023-03-14T20:45:01.538Z,66.10
2023-03-14T20:47:28.446Z,66.20
2023-03-14T20:49:55.041Z,66.30
2023-03-14T20:52:22.600Z,66.50
2023-03-14T20:54:49.413Z,66.70
2023-03-14T20:57:16.674Z,66.80
2023-03-14T20:59:43.371Z,66.90
2023-03-14T21:02:11.007Z,67.10
2023-03-14T21:04:38.047Z,67.30
2023-03-14T21:07:04.842Z,67.20
2023-03-14T21:09:32.578Z,67.20
2023-03-14T21:11:59.163Z,67.30
2023-03-14T21:14:25.812Z,67.40
2023-03-14T21:16:57.019Z,67.40
2023-03-14T21:19:30.441Z,67.40
2023-03-14T21:21:58.263Z,67.40
2023-03-14T21:24:25.687Z,67.00
2023-03-14T21:26:53.448Z,67.20
2023-03-14T21:29:21.492Z,67.40
2023-03-14T21:31:48.901Z,67.40
2023-03-14T21:34:15.758Z,67.30
2023-03-14T21:36:42.453Z,67.20
2023-03-14T21:39:09.547Z,67.10
2023-03-14T21:41:36.261Z,67.00
2023-03-14T21:44:02.889Z,67.00
2023-03-14T21:46:29.499Z,67.10
2023-03-14T21:48:56.168Z,67.10
2023-03-14T21:51:29.831Z,67.30
2023-03-14T21:53:56.943Z,67.30
2023-03-14T21:56:26.924Z,67.20
2023-03-14T21:58:55.767Z,67.20
2023-03-14T22:01:23.279Z,67.20
2023-03-14T22:03:49.995Z,67.20
2023-03-14T22:06:16.587Z,67.30
2023-03-14T22:08:43.205Z,67.30
2023-03-14T22:11:09.850Z,67.50
2023-03-14T22:13:38.179Z,67.70
2023-03-14T22:16:05.176Z,68.00
2023-03-14T22:18:31.772Z,68.10
2023-03-14T22:20:58.565Z,68.20
2023-03-14T22:23:25.249Z,68.20
2023-03-14T22:25:51.879Z,68.00
2023-03-14T22:28:19.275Z,68.10
2023-03-14T22:30:47.772Z,68.30
2023-03-14T22:33:14.961Z,68.30
2023-03-14T22:35:41.635Z,68.40
2023-03-14T22:38:08.295Z,68.30
2023-03-14T22:40:37.988Z,68.20
2023-03-14T22:43:04.718Z,68.20
2023-03-14T22:45:31.385Z,68.20
2023-03-14T22:47:58.227Z,68.40
2023-03-14T22:50:25.001Z,68.50
2023-03-14T22:52:51.667Z,68.50
2023-03-14T22:55:18.398Z,68.40
2023-03-14T22:57:45.088Z,68.40
2023-03-14T23:00:13.890Z,68.50
2023-03-14T23:02:41.179Z,68.60
2023-03-14T23:05:08.274Z,68.50
2023-03-14T23:07:34.904Z,68.40
2023-03-14T23:10:02.051Z,68.40
2023-03-14T23:12:28.648Z,68.40
2023-03-14T23:14:55.344Z,68.40
2023-03-14T23:17:22.067Z,68.20
2023-03-14T23:19:48.733Z,68.20
2023-03-14T23:22:15.355Z,68.10
2023-03-14T23:24:41.979Z,68.00
2023-03-14T23:27:08.591Z,68.00
2023-03-14T23:29:35.164Z,68.00
2023-03-14T23:32:01.754Z,67.90
2023-03-14T23:34:28.361Z,67.80
2023-03-14T23:36:54.928Z,67.80
2023-03-14T23:39:21.549Z,67.80
2023-03-14T23:41:48.128Z,68.00
2023-03-14T23:44:14.804Z,68.10
2023-03-14T23:46:41.393Z,68.20
2023-03-14T23:49:08.019Z,68.20
2023-03-14T23:51:34.672Z,68.20
2023-03-14T23:54:01.291Z,68.20
2023-03-14T23:56:27.908Z,68.20
2023-03-14T23:58:54.605Z,68.30
